Wetterdaten: Woche 20.08.01 - 26.08.01 (KW34)
Datum Zeit Temperatur Luftfeuchte Luftdruck Regenmenge Wind Richtung Taupunkt Windchill
20.08.2001 00:00 18.8 C 77 % 1007.7 hPa 0.0 l/m 1.5 km/h (1 Bft) W 14.7 C 18.8 C
20.08.2001 01:00 17.1 C 84 % 1009.3 hPa 1.9 l/m 7.1 km/h (2 Bft) W-NW 14.3 C 17.1 C
20.08.2001 02:00 16.1 C 92 % 1008.8 hPa 3.8 l/m 1.6 km/h (1 Bft) W-NW 14.8 C 16.1 C
20.08.2001 03:00 15.9 C 95 % 1009.7 hPa 0.6 l/m 2.0 km/h (1 Bft) O-SO 15.0 C 15.9 C
20.08.2001 04:00 15.9 C 95 % 1009.7 hPa 1.3 l/m 1.0 km/h (0 Bft) O-SO 15.2 C 15.9 C
20.08.2001 05:00 16.0 C 95 % 1009.7 hPa 0.9 l/m 0.0 km/h (0 Bft) N 15.2 C 16.0 C
20.08.2001 06:00 15.9 C 95 % 1009.7 hPa 0.9 l/m 0.5 km/h (0 Bft) O-SO 15.1 C 15.9 C
20.08.2001 07:00 16.2 C 95 % 1010.1 hPa 0.0 l/m 0.0 km/h (0 Bft) N 15.5 C 16.2 C
20.08.2001 08:00 16.7 C 95 % 1010.8 hPa 0.0 l/m 0.0 km/h (0 Bft) N 15.8 C 16.7 C
20.08.2001 09:00 17.0 C 94 % 1010.9 hPa 0.3 l/m 0.0 km/h (0 Bft) N 16.0 C 17.0 C
20.08.2001 10:00 17.9 C 90 % 1011.8 hPa 0.0 l/m 0.0 km/h (0 Bft) N 16.2 C 17.9 C
20.08.2001 11:00 18.1 C 88 % 1011.8 hPa 0.0 l/m 0.7 km/h (0 Bft) O-SO 16.1 C 18.1 C
20.08.2001 12:00 18.9 C 84 % 1011.8 hPa 0.0 l/m 0.5 km/h (0 Bft) O-SO 16.1 C 18.9 C
20.08.2001 13:00 21.0 C 75 % 1011.7 hPa 0.0 l/m 3.8 km/h (1 Bft) O-SO 16.3 C 21.0 C
20.08.2001 14:00 23.0 C 63 % 1011.0 hPa 0.0 l/m 3.0 km/h (1 Bft) O-SO 15.5 C 23.0 C
20.08.2001 15:00 23.0 C 61 % 1010.8 hPa 0.0 l/m 2.2 km/h (1 Bft) O-SO 15.1 C 23.0 C
20.08.2001 16:00 22.6 C 66 % 1010.8 hPa 0.0 l/m 4.9 km/h (1 Bft) O-SO 15.9 C 22.6 C
20.08.2001 17:00 21.2 C 71 % 1010.9 hPa 0.0 l/m 1.3 km/h (1 Bft) O-SO 15.6 C 21.2 C
20.08.2001 18:00 20.9 C 70 % 1011.7 hPa 0.0 l/m 9.7 km/h (2 Bft) W-NW 15.3 C 20.9 C
20.08.2001 19:00 22.0 C 62 % 1011.9 hPa 0.0 l/m 2.4 km/h (1 Bft) W 14.3 C 22.0 C
20.08.2001 20:00 18.7 C 73 % 1013.0 hPa 0.0 l/m 3.7 km/h (1 Bft) O-SO 13.7 C 18.7 C
20.08.2001 21:00 16.8 C 82 % 1013.9 hPa 0.0 l/m 0.0 km/h (0 Bft) N 13.6 C 16.8 C
20.08.2001 22:00 15.4 C 89 % 1013.9 hPa 0.0 l/m 0.6 km/h (0 Bft) O-SO 13.5 C 15.4 C
20.08.2001 23:00 14.7 C 92 % 1013.9 hPa 0.0 l/m 0.5 km/h (0 Bft) O-SO 13.4 C 14.7 C
21.08.2001 00:00 14.0 C 93 % 1014.5 hPa 0.0 l/m 0.2 km/h (0 Bft) O-SO 13.0 C 14.0 C
21.08.2001 01:00 13.7 C 94 % 1014.9 hPa 0.0 l/m 0.3 km/h (0 Bft) O-SO 12.8 C 13.7 C
21.08.2001 02:00 13.4 C 95 % 1014.5 hPa 0.0 l/m 0.0 km/h (0 Bft) N 12.5 C 13.4 C
21.08.2001 03:00 13.8 C 96 % 1014.7 hPa 0.0 l/m 0.5 km/h (0 Bft) O-SO 13.2 C 13.8 C
21.08.2001 04:00 13.9 C 96 % 1014.9 hPa 0.0 l/m 0.3 km/h (0 Bft) O-SO 13.2 C 13.9 C
21.08.2001 05:00 13.9 C 95 % 1014.9 hPa 0.0 l/m 0.6 km/h (0 Bft) O-SO 13.2 C 13.9 C
21.08.2001 06:00 13.9 C 95 % 1014.9 hPa 0.0 l/m 0.3 km/h (0 Bft) O-SO 13.1 C 13.9 C
21.08.2001 07:00 14.1 C 94 % 1015.1 hPa 0.0 l/m 0.2 km/h (0 Bft) SO 13.2 C 14.1 C
21.08.2001 08:00 14.7 C 91 % 1015.8 hPa 0.0 l/m 0.1 km/h (0 Bft) SO 13.2 C 14.7 C
21.08.2001 09:00 16.4 C 85 % 1016.0 hPa 0.0 l/m 3.9 km/h (1 Bft) SO 13.9 C 16.4 C
21.08.2001 10:00 18.4 C 78 % 1015.4 hPa 0.0 l/m 5.1 km/h (1 Bft) O-SO 14.4 C 18.4 C
21.08.2001 11:00 20.7 C 71 % 1014.9 hPa 0.0 l/m 12.2 km/h (2 Bft) O-SO 15.2 C 20.7 C
21.08.2001 12:00 22.1 C 67 % 1014.9 hPa 0.0 l/m 8.9 km/h (2 Bft) O-SO 15.6 C 22.1 C
21.08.2001 13:00 23.6 C 62 % 1014.1 hPa 0.0 l/m 7.8 km/h (2 Bft) O-SO 15.7 C 23.6 C
21.08.2001 14:00 24.7 C 55 % 1013.9 hPa 0.0 l/m 8.8 km/h (2 Bft) O 15.1 C 24.7 C
21.08.2001 15:00 25.2 C 52 % 1013.9 hPa 0.0 l/m 7.5 km/h (2 Bft) O-SO 14.5 C 25.2 C
21.08.2001 16:00 25.5 C 49 % 1013.8 hPa 0.0 l/m 4.9 km/h (1 Bft) O 14.1 C 25.5 C
21.08.2001 17:00 25.5 C 48 % 1013.0 hPa 0.0 l/m 6.3 km/h (2 Bft) O-SO 13.7 C 25.5 C
21.08.2001 18:00 24.9 C 50 % 1012.8 hPa 0.0 l/m 9.2 km/h (2 Bft) O-SO 13.7 C 24.9 C
21.08.2001 19:00 23.6 C 55 % 1013.1 hPa 0.0 l/m 4.1 km/h (1 Bft) O-SO 14.0 C 23.6 C
21.08.2001 20:00 20.5 C 69 % 1013.9 hPa 0.0 l/m 2.0 km/h (1 Bft) O-SO 14.5 C 20.5 C
21.08.2001 21:00 18.0 C 79 % 1014.5 hPa 0.0 l/m 0.4 km/h (0 Bft) O-SO 14.3 C 18.0 C
21.08.2001 22:00 16.7 C 85 % 1014.9 hPa 0.0 l/m 0.9 km/h (0 Bft) O-SO 14.1 C 16.7 C
21.08.2001 23:00 15.8 C 88 % 1014.9 hPa 0.0 l/m 1.2 km/h (1 Bft) O-SO 13.8 C 15.8 C
22.08.2001 00:00 15.0 C 90 % 1015.7 hPa 0.0 l/m 0.0 km/h (0 Bft) N 13.3 C 15.0 C
22.08.2001 01:00 14.6 C 92 % 1016.0 hPa 0.0 l/m 0.4 km/h (0 Bft) O-SO 13.2 C 14.6 C
22.08.2001 02:00 14.0 C 92 % 1016.0 hPa 0.0 l/m 1.1 km/h (0 Bft) O-SO 12.8 C 14.0 C
22.08.2001 03:00 13.8 C 93 % 1016.0 hPa 0.0 l/m 0.8 km/h (0 Bft) O 12.8 C 13.8 C
22.08.2001 04:00 13.2 C 93 % 1016.0 hPa 0.0 l/m 0.0 km/h (0 Bft) N 12.1 C 13.2 C
22.08.2001 05:00 12.4 C 94 % 1016.0 hPa 0.0 l/m 0.2 km/h (0 Bft) O 11.6 C 12.4 C
22.08.2001 06:00 12.1 C 95 % 1016.5 hPa 0.0 l/m 1.0 km/h (0 Bft) O 11.4 C 12.1 C
22.08.2001 07:00 12.9 C 95 % 1017.0 hPa 0.0 l/m 0.2 km/h (0 Bft) O 12.1 C 12.9 C
22.08.2001 08:00 14.6 C 92 % 1017.0 hPa 0.0 l/m 0.0 km/h (0 Bft) N 13.3 C 14.6 C
22.08.2001 09:00 17.2 C 83 % 1017.0 hPa 0.0 l/m 1.1 km/h (1 Bft) S 14.3 C 17.2 C
22.08.2001 10:00 20.1 C 69 % 1017.0 hPa 0.0 l/m 8.0 km/h (2 Bft) O 14.3 C 20.1 C
22.08.2001 11:00 22.4 C 64 % 1017.0 hPa 0.0 l/m 8.8 km/h (2 Bft) O-SO 15.2 C 22.4 C
22.08.2001 12:00 24.3 C 59 % 1017.0 hPa 0.0 l/m 13.9 km/h (3 Bft) O-SO 15.8 C 24.3 C
22.08.2001 13:00 25.0 C 56 % 1016.8 hPa 0.0 l/m 13.8 km/h (3 Bft) O-SO 15.5 C 25.0 C
22.08.2001 14:00 26.2 C 49 % 1016.0 hPa 0.0 l/m 13.9 km/h (3 Bft) O-SO 14.7 C 26.2 C
22.08.2001 15:00 27.1 C 46 % 1016.0 hPa 0.0 l/m 14.6 km/h (3 Bft) O-SO 14.5 C 27.1 C
22.08.2001 16:00 26.8 C 45 % 1015.3 hPa 0.0 l/m 5.9 km/h (2 Bft) O-NO 13.8 C 26.8 C
22.08.2001 17:00 26.6 C 46 % 1015.1 hPa 0.0 l/m 7.6 km/h (2 Bft) O-SO 14.1 C 26.6 C
22.08.2001 18:00 25.9 C 49 % 1014.9 hPa 0.0 l/m 9.8 km/h (2 Bft) O-SO 14.4 C 25.9 C
22.08.2001 19:00 24.5 C 56 % 1014.9 hPa 0.0 l/m 2.0 km/h (1 Bft) O-SO 15.2 C 24.5 C
22.08.2001 20:00 22.0 C 65 % 1015.5 hPa 0.0 l/m 3.8 km/h (1 Bft) O 15.1 C 22.0 C
22.08.2001 21:00 19.3 C 77 % 1016.0 hPa 0.0 l/m 0.0 km/h (0 Bft) N 15.1 C 19.3 C
22.08.2001 22:00 18.0 C 82 % 1016.1 hPa 0.0 l/m 0.0 km/h (0 Bft) N 14.9 C 18.0 C
22.08.2001 23:00 17.1 C 86 % 1016.5 hPa 0.0 l/m 0.1 km/h (0 Bft) O 14.6 C 17.1 C
23.08.2001 00:00 16.7 C 87 % 1016.9 hPa 0.0 l/m 0.0 km/h (0 Bft) N 14.6 C 16.7 C
23.08.2001 01:00 16.2 C 89 % 1016.3 hPa 0.0 l/m 2.9 km/h (1 Bft) O-SO 14.3 C 16.2 C
23.08.2001 02:00 15.4 C 91 % 1016.0 hPa 0.0 l/m 2.2 km/h (1 Bft) O-SO 14.0 C 15.4 C
23.08.2001 03:00 14.9 C 93 % 1016.0 hPa 0.0 l/m 2.7 km/h (1 Bft) O-SO 13.8 C 14.9 C
23.08.2001 04:00 14.6 C 93 % 1016.0 hPa 0.0 l/m 1.4 km/h (1 Bft) O 13.6 C 14.6 C
23.08.2001 05:00 13.7 C 94 % 1016.0 hPa 0.0 l/m 1.1 km/h (1 Bft) O-SO 12.8 C 13.7 C
23.08.2001 06:00 13.6 C 94 % 1016.0 hPa 0.0 l/m 0.0 km/h (0 Bft) N 12.7 C 13.6 C
23.08.2001 07:00 14.3 C 94 % 1016.0 hPa 0.0 l/m 0.0 km/h (0 Bft) N 13.3 C 14.3 C
23.08.2001 08:00 16.0 C 90 % 1016.0 hPa 0.0 l/m 0.0 km/h (0 Bft) N 14.3 C 16.0 C
23.08.2001 09:00 18.3 C 83 % 1016.0 hPa 0.0 l/m 0.3 km/h (0 Bft) O 15.2 C 18.3 C
23.08.2001 10:00 21.0 C 72 % 1016.0 hPa 0.0 l/m 5.6 km/h (1 Bft) O-SO 15.7 C 21.0 C
23.08.2001 11:00 22.9 C 66 % 1016.0 hPa 0.0 l/m 5.8 km/h (1 Bft) O-SO 16.2 C 22.9 C
23.08.2001 12:00 24.5 C 62 % 1016.0 hPa 0.0 l/m 7.8 km/h (2 Bft) O-SO 16.7 C 24.5 C
23.08.2001 13:00 25.9 C 57 % 1014.9 hPa 0.0 l/m 10.1 km/h (2 Bft) O-SO 16.6 C 25.9 C
23.08.2001 14:00 26.9 C 52 % 1014.9 hPa 0.0 l/m 10.2 km/h (2 Bft) O-SO 16.1 C 26.9 C
23.08.2001 15:00 27.8 C 46 % 1014.6 hPa 0.0 l/m 7.6 km/h (2 Bft) O-SO 15.2 C 27.8 C
23.08.2001 16:00 28.2 C 45 % 1013.9 hPa 0.0 l/m 9.9 km/h (2 Bft) O-SO 15.3 C 28.2 C
23.08.2001 17:00 28.1 C 47 % 1013.9 hPa 0.0 l/m 9.2 km/h (2 Bft) O-SO 15.6 C 28.1 C
23.08.2001 18:00 26.9 C 53 % 1013.9 hPa 0.0 l/m 7.6 km/h (2 Bft) O-SO 16.5 C 26.9 C
23.08.2001 19:00 24.5 C 63 % 1013.9 hPa 0.0 l/m 2.9 km/h (1 Bft) O-SO 17.0 C 24.5 C
23.08.2001 20:00 22.0 C 74 % 1014.3 hPa 0.0 l/m 4.4 km/h (1 Bft) O-SO 17.0 C 22.0 C
23.08.2001 21:00 20.4 C 78 % 1014.9 hPa 0.0 l/m 5.1 km/h (1 Bft) O-SO 16.5 C 20.4 C
23.08.2001 22:00 19.2 C 82 % 1014.9 hPa 0.0 l/m 4.2 km/h (1 Bft) O 16.0 C 19.2 C
23.08.2001 23:00 18.1 C 86 % 1014.9 hPa 0.0 l/m 0.7 km/h (0 Bft) O-SO 15.7 C 18.1 C
24.08.2001 00:00 17.4 C 89 % 1014.9 hPa 0.0 l/m 2.4 km/h (1 Bft) O-SO 15.5 C 17.4 C
24.08.2001 01:00 16.7 C 91 % 1014.9 hPa 0.0 l/m 1.9 km/h (1 Bft) O-SO 15.2 C 16.7 C
24.08.2001 02:00 16.0 C 93 % 1014.9 hPa 0.0 l/m 1.2 km/h (1 Bft) O-SO 14.8 C 16.0 C
24.08.2001 03:00 15.6 C 94 % 1014.9 hPa 0.0 l/m 1.6 km/h (1 Bft) O-SO 14.6 C 15.6 C
24.08.2001 04:00 15.1 C 94 % 1014.9 hPa 0.0 l/m 1.6 km/h (1 Bft) O-SO 14.2 C 15.1 C
24.08.2001 05:00 14.7 C 95 % 1014.9 hPa 0.0 l/m 0.1 km/h (0 Bft) O-SO 13.9 C 14.7 C
24.08.2001 06:00 14.3 C 95 % 1014.9 hPa 0.0 l/m 0.2 km/h (0 Bft) O-SO 13.6 C 14.3 C
24.08.2001 07:00 15.3 C 95 % 1014.9 hPa 0.0 l/m 0.0 km/h (0 Bft) N 14.4 C 15.3 C
24.08.2001 08:00 16.5 C 92 % 1014.9 hPa 0.0 l/m 0.0 km/h (0 Bft) N 15.3 C 16.5 C
24.08.2001 09:00 17.2 C 90 % 1014.9 hPa 0.0 l/m 0.1 km/h (0 Bft) N 15.5 C 17.2 C
24.08.2001 10:00 19.7 C 80 % 1014.9 hPa 0.0 l/m 1.3 km/h (1 Bft) W 16.1 C 19.7 C
24.08.2001 11:00 22.7 C 68 % 1014.9 hPa 0.0 l/m 2.5 km/h (1 Bft) W 16.5 C 22.7 C
24.08.2001 12:00 24.7 C 61 % 1014.6 hPa 0.0 l/m 2.0 km/h (1 Bft) W-NW 16.7 C 24.7 C
24.08.2001 13:00 27.2 C 50 % 1013.7 hPa 0.0 l/m 7.4 km/h (2 Bft) O-SO 15.8 C 27.2 C
24.08.2001 14:00 28.3 C 46 % 1009.9 hPa 0.0 l/m 9.5 km/h (2 Bft) O-SO 15.7 C 28.3 C
24.08.2001 15:00 29.3 C 44 % 1009.0 hPa 0.0 l/m 9.5 km/h (2 Bft) O-SO 15.9 C 29.3 C
24.08.2001 16:00 29.5 C 43 % 1008.8 hPa 0.0 l/m 7.5 km/h (2 Bft) O-SO 15.5 C 29.5 C
24.08.2001 17:00 29.4 C 42 % 1008.8 hPa 0.0 l/m 8.2 km/h (2 Bft) O-SO 15.2 C 29.4 C
24.08.2001 18:00 28.7 C 45 % 1008.8 hPa 0.0 l/m 4.1 km/h (1 Bft) O-SO 15.5 C 28.7 C
24.08.2001 19:00 26.6 C 54 % 1008.8 hPa 0.0 l/m 4.8 km/h (1 Bft) O-SO 16.3 C 26.6 C
24.08.2001 20:00 23.2 C 68 % 1008.9 hPa 0.0 l/m 2.8 km/h (1 Bft) O-SO 16.9 C 23.2 C
24.08.2001 21:00 20.7 C 77 % 1009.8 hPa 0.0 l/m 3.3 km/h (1 Bft) O-SO 16.4 C 20.7 C
24.08.2001 22:00 19.3 C 81 % 1009.9 hPa 0.0 l/m 2.9 km/h (1 Bft) O-SO 15.9 C 19.3 C
24.08.2001 23:00 18.4 C 83 % 1009.9 hPa 0.0 l/m 1.9 km/h (1 Bft) O-SO 15.5 C 18.4 C
25.08.2001 00:00 17.4 C 87 % 1009.9 hPa 0.0 l/m 2.4 km/h (1 Bft) O-SO 15.2 C 17.4 C
25.08.2001 01:00 16.7 C 90 % 1009.9 hPa 0.0 l/m 1.5 km/h (1 Bft) O-SO 15.0 C 16.7 C
25.08.2001 02:00 16.2 C 91 % 1009.9 hPa 0.0 l/m 1.2 km/h (1 Bft) O-SO 14.7 C 16.2 C
25.08.2001 03:00 15.5 C 92 % 1009.9 hPa 0.0 l/m 0.0 km/h (0 Bft) O-SO 14.3 C 15.5 C
25.08.2001 04:00 15.0 C 94 % 1009.9 hPa 0.0 l/m 1.2 km/h (1 Bft) O-SO 14.0 C 15.0 C
25.08.2001 05:00 14.6 C 94 % 1009.9 hPa 0.0 l/m 0.3 km/h (0 Bft) O-SO 13.6 C 14.6 C
25.08.2001 06:00 14.2 C 95 % 1009.9 hPa 0.0 l/m 0.0 km/h (0 Bft) N 13.4 C 14.2 C
25.08.2001 07:00 14.7 C 95 % 1010.7 hPa 0.0 l/m 0.0 km/h (0 Bft) N 13.9 C 14.7 C
25.08.2001 08:00 16.3 C 91 % 1010.9 hPa 0.0 l/m 0.0 km/h (0 Bft) N 14.9 C 16.3 C
25.08.2001 09:00 18.3 C 84 % 1010.9 hPa 0.0 l/m 0.3 km/h (0 Bft) W-NW 15.5 C 18.3 C
25.08.2001 10:00 20.9 C 75 % 1010.9 hPa 0.0 l/m 0.4 km/h (0 Bft) W 16.2 C 20.9 C
25.08.2001 11:00 23.7 C 65 % 1010.9 hPa 0.0 l/m 3.1 km/h (1 Bft) W 16.6 C 23.7 C
25.08.2001 12:00 25.9 C 57 % 1010.2 hPa 0.0 l/m 3.5 km/h (1 Bft) W-NW 16.6 C 25.9 C
25.08.2001 13:00 28.2 C 46 % 1009.9 hPa 0.0 l/m 4.2 km/h (1 Bft) O-SO 15.4 C 28.2 C
25.08.2001 14:00 29.4 C 41 % 1009.9 hPa 0.0 l/m 6.3 km/h (2 Bft) O-SO 14.8 C 29.4 C
25.08.2001 15:00 30.4 C 37 % 1009.3 hPa 0.0 l/m 7.0 km/h (2 Bft) O-SO 14.2 C 30.4 C
25.08.2001 16:00 30.8 C 36 % 1008.8 hPa 0.0 l/m 4.5 km/h (1 Bft) O-SO 13.8 C 30.8 C
25.08.2001 17:00 30.6 C 35 % 1008.8 hPa 0.0 l/m 3.9 km/h (1 Bft) O-SO 13.5 C 30.6 C
25.08.2001 18:00 29.7 C 40 % 1008.8 hPa 0.0 l/m 4.2 km/h (1 Bft) O-SO 14.6 C 29.7 C
25.08.2001 19:00 27.3 C 51 % 1008.8 hPa 0.0 l/m 4.8 km/h (1 Bft) O-SO 16.2 C 27.3 C
25.08.2001 20:00 23.3 C 67 % 1008.8 hPa 0.0 l/m 4.2 km/h (1 Bft) O-SO 16.7 C 23.3 C
25.08.2001 21:00 21.0 C 74 % 1009.7 hPa 0.0 l/m 4.6 km/h (1 Bft) O-SO 16.1 C 21.0 C
25.08.2001 22:00 19.5 C 78 % 1009.9 hPa 0.0 l/m 2.9 km/h (1 Bft) O-SO 15.5 C 19.5 C
25.08.2001 23:00 18.5 C 81 % 1009.9 hPa 0.0 l/m 2.2 km/h (1 Bft) O-SO 15.2 C 18.5 C
26.08.2001 00:00 17.9 C 85 % 1009.9 hPa 0.0 l/m 2.7 km/h (1 Bft) O-SO 15.2 C 17.9 C
26.08.2001 01:00 17.1 C 88 % 1010.2 hPa 0.0 l/m 1.7 km/h (1 Bft) O-SO 15.0 C 17.1 C
26.08.2001 02:00 16.3 C 91 % 1010.6 hPa 0.0 l/m 0.6 km/h (0 Bft) O 14.8 C 16.3 C
26.08.2001 03:00 15.6 C 92 % 1010.9 hPa 0.0 l/m 1.0 km/h (0 Bft) O 14.3 C 15.6 C
26.08.2001 04:00 14.9 C 93 % 1010.9 hPa 0.0 l/m 0.0 km/h (0 Bft) N 13.8 C 14.9 C
26.08.2001 05:00 14.6 C 94 % 1010.9 hPa 0.0 l/m 1.1 km/h (0 Bft) O-SO 13.7 C 14.6 C
26.08.2001 06:00 14.2 C 95 % 1010.9 hPa 0.0 l/m 0.4 km/h (0 Bft) O-SO 13.3 C 14.2 C
26.08.2001 07:00 15.0 C 94 % 1010.9 hPa 0.0 l/m 0.0 km/h (0 Bft) N 14.1 C 15.0 C
26.08.2001 08:00 16.5 C 91 % 1010.9 hPa 0.0 l/m 0.0 km/h (0 Bft) N 15.0 C 16.5 C
26.08.2001 09:00 18.8 C 85 % 1010.9 hPa 0.0 l/m 0.3 km/h (0 Bft) O-SO 16.1 C 18.8 C
26.08.2001 10:00 21.4 C 74 % 1010.9 hPa 0.0 l/m 1.2 km/h (1 Bft) W-NW 16.6 C 21.4 C
26.08.2001 11:00 23.9 C 66 % 1010.9 hPa 0.0 l/m 1.4 km/h (1 Bft) W-NW 17.2 C 23.9 C
26.08.2001 12:00 26.3 C 58 % 1010.6 hPa 0.0 l/m 2.1 km/h (1 Bft) O-SO 17.4 C 26.3 C
26.08.2001 13:00 28.3 C 53 % 1009.9 hPa 0.0 l/m 3.1 km/h (1 Bft) O-SO 17.8 C 28.3 C
26.08.2001 14:00 29.9 C 48 % 1009.6 hPa 0.0 l/m 6.8 km/h (2 Bft) O-SO 17.6 C 29.9 C
26.08.2001 15:00 31.1 C 43 % 1008.8 hPa 0.0 l/m 3.3 km/h (1 Bft) O-SO 17.2 C 31.1 C
26.08.2001 16:00 31.5 C 34 % 1008.4 hPa 0.0 l/m 4.7 km/h (1 Bft) O-SO 13.6 C 31.5 C
26.08.2001 17:00 30.9 C 34 % 1007.8 hPa 0.0 l/m 5.5 km/h (1 Bft) O-SO 13.1 C 30.9 C
26.08.2001 18:00 30.0 C 38 % 1007.8 hPa 0.0 l/m 4.3 km/h (1 Bft) O-SO 13.8 C 30.0 C
26.08.2001 19:00 27.3 C 50 % 1007.8 hPa 0.0 l/m 4.4 km/h (1 Bft) O-SO 15.9 C 27.3 C
26.08.2001 20:00 23.0 C 67 % 1007.8 hPa 0.0 l/m 7.0 km/h (2 Bft) O-SO 16.5 C 23.0 C
26.08.2001 21:00 21.2 C 74 % 1008.7 hPa 0.0 l/m 5.0 km/h (1 Bft) O 16.3 C 21.2 C
26.08.2001 22:00 19.4 C 78 % 1008.8 hPa 0.0 l/m 2.1 km/h (1 Bft) O 15.5 C 19.4 C
26.08.2001 23:00 18.2 C 82 % 1008.8 hPa 0.0 l/m 2.9 km/h (1 Bft) O 15.2 C 18.2 C
Min-Datum _ 22.08.01 26.08.01 20.08.01 - 20.08.01 - 26.08.01 22.08.01
_ Min-Zeit 06:37 16:53 00:02 - 00:11 - 16:53 06:37
Minimum _ 11.7 C 28 % 1007.6 hPa - 0.0 km/h (0 Bft) - 10.6 C 11.7 C
Max-Datum _ 26.08.01 20.08.01 22.08.01 20.08.01 20.08.01 - 26.08.01 26.08.01
_ Max-Zeit 15:41 03:38 06:28 01:00 01:14 - 13:14 15:41
Maximum _ 31.7 C 96 % 1017.0 hPa 3.8 l/m 25.6 km/h
W-NW (4 Bft)
- 19.1 C 31.7 C
Durchschnitt _ 20.2 C 75 % 1012.7 hPa #9.7 l/m 3.2 km/h (1 Bft) O-SO 14.8 C 20.2 C

Durchschnitt Minimum Temp.19.2 C
Durchschnitt Maximum Temp.21.1 C
© Kaiko 2001